createdAt,value
2019-04-29T00:00:49.208Z,10.80
2019-04-29T00:03:19.535Z,11.30
2019-04-29T00:05:50.102Z,12.07
2019-04-29T00:08:20.225Z,11.67
2019-04-29T00:13:45.597Z,10.60
2019-04-29T00:16:17.415Z,11.67
2019-04-29T00:18:51.539Z,11.47
2019-04-29T00:21:22.894Z,12.23
2019-04-29T00:24:03.615Z,11.37
2019-04-29T00:26:24.924Z,11.97
2019-04-29T00:28:55.019Z,12.00
2019-04-29T00:31:25.240Z,11.90
2019-04-29T00:33:55.247Z,12.10
2019-04-29T00:36:26.963Z,12.17
2019-04-29T00:38:58.677Z,11.90
2019-04-29T00:41:37.363Z,11.83
2019-04-29T00:44:09.199Z,12.10
2019-04-29T00:46:39.334Z,11.83
2019-04-29T00:49:09.344Z,11.67
2019-04-29T00:51:39.537Z,12.17
2019-04-29T00:54:12.340Z,11.70
2019-04-29T00:56:42.507Z,11.83
2019-04-29T00:59:12.523Z,12.27
2019-04-29T01:01:43.259Z,11.03
2019-04-29T01:04:13.345Z,11.87
2019-04-29T01:06:43.350Z,12.30
2019-04-29T01:09:14.816Z,11.80
2019-04-29T01:11:44.876Z,11.83
2019-04-29T01:14:14.883Z,12.10
2019-04-29T01:16:44.893Z,11.83
2019-04-29T01:19:14.981Z,11.13
2019-04-29T01:21:44.975Z,11.00
2019-04-29T01:24:14.989Z,11.63
2019-04-29T01:26:47.709Z,11.40
2019-04-29T01:29:19.350Z,12.13
2019-04-29T01:31:49.555Z,11.40
2019-04-29T01:34:21.202Z,10.57
2019-04-29T01:36:51.214Z,11.93
2019-04-29T01:39:22.938Z,12.07
2019-04-29T01:42:00.540Z,11.30
2019-04-29T01:44:32.330Z,11.20
2019-04-29T01:47:02.320Z,10.60
2019-04-29T01:49:32.341Z,10.40
2019-04-29T01:52:02.433Z,11.40
2019-04-29T01:54:32.592Z,11.17
2019-04-29T01:57:02.532Z,11.30
2019-04-29T01:59:32.541Z,11.83
2019-04-29T02:02:02.595Z,11.63
2019-04-29T02:04:32.621Z,11.50
2019-04-29T02:07:02.617Z,11.90
2019-04-29T02:09:34.288Z,11.60
2019-04-29T02:12:04.441Z,11.30
2019-04-29T02:14:34.447Z,11.47
2019-04-29T02:17:04.627Z,11.37
2019-04-29T02:19:34.617Z,11.70
2019-04-29T02:22:12.149Z,11.80
2019-04-29T02:24:43.800Z,10.93
2019-04-29T02:27:13.865Z,11.10
2019-04-29T02:29:43.868Z,11.53
2019-04-29T02:32:13.877Z,10.57
2019-04-29T02:34:43.891Z,11.43
2019-04-29T02:37:15.580Z,10.03
2019-04-29T02:39:55.804Z,10.53
2019-04-29T02:42:39.556Z,10.17
2019-04-29T02:45:11.888Z,10.90
2019-04-29T02:47:41.941Z,10.80
2019-04-29T02:50:12.007Z,11.00
2019-04-29T02:52:42.110Z,9.87
2019-04-29T02:55:14.373Z,10.37
2019-04-29T02:57:51.625Z,10.20
2019-04-29T03:00:26.350Z,10.17
2019-04-29T03:03:00.859Z,9.63
2019-04-29T03:05:34.952Z,9.97
2019-04-29T03:08:05.097Z,9.93
2019-04-29T03:10:35.146Z,10.20
2019-04-29T03:13:06.110Z,9.60
2019-04-29T03:15:39.161Z,9.57
2019-04-29T03:18:09.353Z,9.87
2019-04-29T03:20:41.159Z,9.90
2019-04-29T03:23:15.911Z,9.23
2019-04-29T03:25:45.969Z,9.33
2019-04-29T03:28:15.991Z,9.17
2019-04-29T03:30:45.993Z,9.20
2019-04-29T03:33:15.978Z,9.00
2019-04-29T03:35:45.993Z,9.13
2019-04-29T03:38:16.136Z,8.93
2019-04-29T03:40:47.281Z,9.20
2019-04-29T03:43:17.274Z,8.57
2019-04-29T03:45:47.292Z,9.10
2019-04-29T03:48:17.274Z,8.87
2019-04-29T03:50:47.408Z,9.37
2019-04-29T03:53:17.410Z,9.23
2019-04-29T03:55:47.431Z,9.40
2019-04-29T03:58:17.449Z,8.57
2019-04-29T04:00:49.080Z,8.90
2019-04-29T04:03:23.156Z,9.23
2019-04-29T04:05:57.394Z,9.23
2019-04-29T04:08:29.046Z,9.37
2019-04-29T04:11:11.098Z,8.93
2019-04-29T04:13:41.141Z,9.10
2019-04-29T04:16:12.852Z,9.20
2019-04-29T04:18:42.951Z,8.77
2019-04-29T04:21:12.968Z,8.77
2019-04-29T04:23:43.038Z,8.70
2019-04-29T04:26:13.052Z,9.20
2019-04-29T04:28:44.113Z,8.90
2019-04-29T04:31:14.116Z,9.47
2019-04-29T04:33:44.194Z,8.90
2019-04-29T04:36:14.263Z,8.67
2019-04-29T04:38:44.269Z,8.70
2019-04-29T04:41:14.265Z,9.17
2019-04-29T04:43:44.283Z,8.87
2019-04-29T04:46:14.329Z,9.13
2019-04-29T04:48:44.326Z,8.83
2019-04-29T04:51:14.398Z,8.47
2019-04-29T04:53:45.500Z,8.90
2019-04-29T04:56:15.501Z,8.90
2019-04-29T04:58:45.524Z,10.03
2019-04-29T05:01:15.549Z,9.10
2019-04-29T05:03:45.556Z,9.57
2019-04-29T05:06:16.706Z,9.67
2019-04-29T05:08:46.764Z,9.37
2019-04-29T05:11:36.408Z,9.23
2019-04-29T05:14:06.689Z,9.37
2019-04-29T05:16:36.683Z,9.77
2019-04-29T05:19:06.689Z,9.53
2019-04-29T05:21:36.688Z,9.37
2019-04-29T05:24:06.716Z,9.77
2019-04-29T05:26:36.703Z,9.80
2019-04-29T05:29:06.691Z,9.30
2019-04-29T05:31:36.682Z,9.80
2019-04-29T05:34:06.682Z,9.57
2019-04-29T05:36:45.211Z,9.70
2019-04-29T05:39:16.833Z,9.73
2019-04-29T05:41:46.841Z,9.57
2019-04-29T05:44:19.119Z,9.90
2019-04-29T05:46:57.109Z,9.83
2019-04-29T05:49:28.744Z,10.30
2019-04-29T05:52:16.511Z,9.90
2019-04-29T05:54:47.133Z,10.27
2019-04-29T05:57:20.467Z,9.53
2019-04-29T05:59:49.559Z,9.33
2019-04-29T06:02:24.002Z,10.00
2019-04-29T06:04:53.954Z,9.93
2019-04-29T06:07:26.759Z,8.27
2019-04-29T06:09:55.842Z,8.53
2019-04-29T06:12:25.892Z,8.13
2019-04-29T06:14:55.893Z,8.60
2019-04-29T06:17:25.896Z,12.87
2019-04-29T06:19:55.948Z,9.77
2019-04-29T06:22:25.936Z,8.70
2019-04-29T06:24:55.964Z,9.00
2019-04-29T06:27:25.976Z,8.30
2019-04-29T06:29:58.490Z,9.50
2019-04-29T06:32:27.708Z,10.87
2019-04-29T06:34:57.779Z,8.70
2019-04-29T06:37:28.847Z,8.63
2019-04-29T06:39:58.887Z,8.93
2019-04-29T06:42:28.883Z,8.50
2019-04-29T06:44:58.942Z,9.30
2019-04-29T06:47:28.936Z,9.20
2019-04-29T06:49:58.994Z,8.77
2019-04-29T06:52:28.995Z,8.40
2019-04-29T06:54:58.993Z,8.70
2019-04-29T06:57:29.030Z,8.30
2019-04-29T06:59:59.487Z,8.83
2019-04-29T07:02:29.523Z,8.90
2019-04-29T07:04:59.517Z,8.50
2019-04-29T07:07:29.524Z,9.70
2019-04-29T07:09:59.588Z,8.23
2019-04-29T07:12:29.711Z,8.73
2019-04-29T07:14:59.728Z,8.70
2019-04-29T07:17:29.741Z,8.00
2019-04-29T07:20:02.007Z,7.90
2019-04-29T07:22:31.700Z,7.57
2019-04-29T07:25:01.722Z,8.50
2019-04-29T07:27:34.497Z,7.50
2019-04-29T07:30:06.439Z,7.90
2019-04-29T07:32:37.186Z,7.80
2019-04-29T07:35:09.770Z,8.23
2019-04-29T07:37:39.528Z,8.17
2019-04-29T07:40:11.241Z,8.50
2019-04-29T07:42:41.286Z,8.00
2019-04-29T07:45:23.744Z,8.60
2019-04-29T07:47:56.673Z,8.40
2019-04-29T07:50:26.809Z,8.13
2019-04-29T07:52:56.988Z,8.00
2019-04-29T07:55:30.841Z,8.43
2019-04-29T07:57:58.760Z,8.00
2019-04-29T08:00:34.697Z,8.33
2019-04-29T08:03:07.025Z,8.37
2019-04-29T08:05:37.217Z,8.03
2019-04-29T08:08:07.223Z,8.03
2019-04-29T08:10:37.307Z,8.40
2019-04-29T08:13:07.547Z,8.60
2019-04-29T08:15:41.616Z,7.60
2019-04-29T08:18:11.436Z,7.93
2019-04-29T08:20:41.461Z,8.17
2019-04-29T08:23:11.503Z,8.27
2019-04-29T08:25:41.559Z,7.87
2019-04-29T08:28:11.559Z,8.00
2019-04-29T08:30:45.433Z,8.50
2019-04-29T08:33:13.348Z,7.80
2019-04-29T08:35:46.711Z,8.27
2019-04-29T08:38:16.155Z,8.40
2019-04-29T08:40:50.066Z,8.23
2019-04-29T08:43:31.814Z,8.10
2019-04-29T08:46:03.451Z,8.17
2019-04-29T08:48:33.475Z,7.97
2019-04-29T08:51:03.462Z,8.13
2019-04-29T08:53:33.472Z,8.17
2019-04-29T08:56:05.591Z,7.90
2019-04-29T08:58:35.316Z,8.30
2019-04-29T09:01:05.392Z,8.40
2019-04-29T09:03:40.332Z,8.50
2019-04-29T09:06:07.220Z,8.33
2019-04-29T09:08:37.311Z,7.73
2019-04-29T09:11:12.239Z,7.97
2019-04-29T09:13:39.157Z,8.47
2019-04-29T09:16:09.594Z,8.40
2019-04-29T09:18:39.594Z,8.27
2019-04-29T09:21:09.606Z,9.13
2019-04-29T09:23:39.660Z,9.47
2019-04-29T09:26:14.328Z,8.70
2019-04-29T09:28:44.457Z,8.67
2019-04-29T09:31:14.636Z,9.80
2019-04-29T09:33:49.146Z,9.23
2019-04-29T09:36:16.350Z,9.27
2019-04-29T09:38:46.335Z,9.63
2019-04-29T09:41:37.371Z,10.00
2019-04-29T09:44:27.502Z,9.90
2019-04-29T09:46:57.579Z,10.27
2019-04-29T09:49:27.646Z,9.70
2019-04-29T09:51:57.658Z,10.30
2019-04-29T09:54:27.714Z,9.87
2019-04-29T09:56:58.701Z,10.33
2019-04-29T09:59:33.191Z,9.67
2019-04-29T10:02:11.104Z,10.07
2019-04-29T10:05:00.718Z,9.80
2019-04-29T10:07:31.402Z,10.30
2019-04-29T10:10:02.226Z,10.57
2019-04-29T10:12:34.349Z,9.63
2019-04-29T10:15:07.132Z,10.20
2019-04-29T10:17:41.623Z,10.97
2019-04-29T10:20:25.432Z,10.70
2019-04-29T10:22:55.528Z,9.83
2019-04-29T10:25:25.526Z,10.07
2019-04-29T10:27:55.540Z,10.53
2019-04-29T10:30:31.122Z,10.00
2019-04-29T10:32:59.139Z,9.73
2019-04-29T10:35:29.208Z,10.27
2019-04-29T10:38:02.868Z,10.50
2019-04-29T10:40:38.749Z,10.90
2019-04-29T10:45:54.578Z,10.07
2019-04-29T10:48:35.380Z,11.30
2019-04-29T10:51:07.138Z,10.27
2019-04-29T10:53:37.149Z,10.47
2019-04-29T10:56:07.290Z,10.17
2019-04-29T10:58:38.420Z,10.47
2019-04-29T11:01:22.239Z,10.70
2019-04-29T11:03:55.834Z,10.17
2019-04-29T11:06:24.290Z,10.87
2019-04-29T11:09:14.514Z,10.87
2019-04-29T11:11:45.698Z,10.37
2019-04-29T11:14:15.978Z,10.50
2019-04-29T11:16:47.089Z,10.20
2019-04-29T11:19:18.180Z,10.17
2019-04-29T11:21:48.344Z,10.67
2019-04-29T11:24:26.744Z,9.87
2019-04-29T11:27:11.558Z,10.20
2019-04-29T11:29:35.682Z,10.27
2019-04-29T11:32:06.675Z,10.33
2019-04-29T11:34:48.405Z,10.50
2019-04-29T11:37:19.577Z,10.07
2019-04-29T11:39:50.349Z,10.17
2019-04-29T11:42:21.883Z,10.37
2019-04-29T11:44:51.974Z,10.27
2019-04-29T11:47:25.164Z,10.47
2019-04-29T11:50:01.164Z,10.20
2019-04-29T11:52:31.250Z,10.03
2019-04-29T11:55:01.547Z,10.50
2019-04-29T11:57:40.719Z,10.27
2019-04-29T12:00:25.350Z,9.83
2019-04-29T12:02:57.152Z,10.30
2019-04-29T12:05:28.863Z,9.83
2019-04-29T12:07:58.867Z,10.20
2019-04-29T12:10:28.928Z,10.13
2019-04-29T12:13:00.580Z,9.90
2019-04-29T12:15:34.759Z,9.93
2019-04-29T12:18:12.458Z,9.23
2019-04-29T12:20:46.909Z,9.23
2019-04-29T12:23:17.966Z,9.57
2019-04-29T12:25:47.982Z,9.73
2019-04-29T12:28:19.178Z,9.40
2019-04-29T12:30:51.474Z,8.97
2019-04-29T12:33:23.211Z,8.97
2019-04-29T12:36:03.339Z,9.10
2019-04-29T12:38:48.849Z,9.10
2019-04-29T12:41:47.696Z,8.80
2019-04-29T12:44:07.655Z,8.93
2019-04-29T12:46:39.299Z,9.10
2019-04-29T12:49:13.418Z,9.80
2019-04-29T12:51:41.167Z,8.93
2019-04-29T12:54:11.197Z,9.30
2019-04-29T12:56:43.300Z,8.77
2019-04-29T12:59:13.592Z,9.13
2019-04-29T13:01:51.536Z,9.00
2019-04-29T13:04:35.145Z,9.13
2019-04-29T13:07:12.895Z,8.83
2019-04-29T13:09:53.761Z,8.97
2019-04-29T13:12:23.826Z,9.27
2019-04-29T13:15:02.508Z,9.00
2019-04-29T13:17:40.559Z,8.80
2019-04-29T13:20:13.124Z,8.90
2019-04-29T13:22:43.244Z,9.07
2019-04-29T13:25:15.579Z,9.20
2019-04-29T13:27:45.311Z,8.67
2019-04-29T13:32:47.401Z,9.17
2019-04-29T13:33:22.662Z,8.70
2019-04-29T13:35:18.029Z,8.97
2019-04-29T13:37:48.079Z,9.17
2019-04-29T13:40:18.624Z,9.07
2019-04-29T13:42:50.906Z,9.03
2019-04-29T13:45:37.225Z,9.33
2019-04-29T13:48:24.278Z,9.03
2019-04-29T13:50:55.985Z,9.30
2019-04-29T13:53:25.985Z,9.00
2019-04-29T13:56:11.103Z,9.00
2019-04-29T13:58:29.312Z,9.13
2019-04-29T14:01:03.858Z,9.27
2019-04-29T14:03:35.494Z,9.53
2019-04-29T14:06:07.281Z,9.53
2019-04-29T14:08:37.331Z,9.30
2019-04-29T14:11:07.505Z,8.90
2019-04-29T14:13:39.020Z,9.07
2019-04-29T14:16:11.954Z,8.90
2019-04-29T14:18:43.590Z,9.17
2019-04-29T14:21:12.828Z,8.70
2019-04-29T14:23:42.829Z,8.80
2019-04-29T14:26:13.059Z,8.60
2019-04-29T14:28:43.135Z,8.90
2019-04-29T14:31:13.267Z,8.67
2019-04-29T14:33:47.856Z,8.70
2019-04-29T14:36:19.898Z,8.80
2019-04-29T14:38:49.605Z,8.97
2019-04-29T14:41:20.992Z,8.90
2019-04-29T14:44:04.594Z,8.90
2019-04-29T14:46:41.815Z,8.63
2019-04-29T14:49:13.476Z,9.27
2019-04-29T14:51:43.533Z,8.53
2019-04-29T14:54:13.578Z,8.10
2019-04-29T14:56:43.562Z,7.90
2019-04-29T14:59:13.863Z,7.13
2019-04-29T15:01:45.692Z,7.00
2019-04-29T15:04:18.902Z,7.27
2019-04-29T15:06:50.353Z,7.17
2019-04-29T15:09:20.480Z,7.67
2019-04-29T15:11:52.180Z,7.30
2019-04-29T15:14:27.364Z,7.77
2019-04-29T15:16:59.337Z,7.70
2019-04-29T15:19:49.345Z,7.60
2019-04-29T15:22:19.688Z,7.80
2019-04-29T15:24:49.749Z,7.43
2019-04-29T15:27:19.732Z,7.47
2019-04-29T15:29:49.728Z,7.60
2019-04-29T15:32:22.070Z,7.60
2019-04-29T15:34:51.482Z,7.47
2019-04-29T15:37:21.490Z,11.63
2019-04-29T15:39:51.510Z,7.77
2019-04-29T15:42:21.500Z,7.70
2019-04-29T15:44:55.638Z,7.73
2019-04-29T15:47:27.555Z,7.63
2019-04-29T15:49:55.601Z,8.67
2019-04-29T15:52:27.739Z,7.90
2019-04-29T15:54:57.869Z,26.17
2019-04-29T15:57:28.163Z,13.47
2019-04-29T15:59:59.685Z,8.53
2019-04-29T16:02:30.054Z,7.63
2019-04-29T16:05:17.722Z,7.50
2019-04-29T16:08:01.372Z,8.37
2019-04-29T16:10:38.843Z,7.73
2019-04-29T16:13:16.505Z,8.00
2019-04-29T16:15:46.501Z,8.40
2019-04-29T16:18:16.573Z,8.03
2019-04-29T16:20:46.605Z,7.83
2019-04-29T16:23:16.659Z,9.37
2019-04-29T16:25:52.257Z,8.27
2019-04-29T16:28:24.456Z,8.93
2019-04-29T16:30:51.174Z,9.37
2019-04-29T16:33:21.173Z,8.67
2019-04-29T16:35:52.288Z,9.27
2019-04-29T16:38:23.451Z,9.07
2019-04-29T16:40:57.196Z,8.10
2019-04-29T16:43:31.257Z,9.30
2019-04-29T16:46:11.772Z,10.27
2019-04-29T16:48:41.974Z,8.70
2019-04-29T16:51:14.159Z,8.30
2019-04-29T16:53:43.745Z,7.90
2019-04-29T16:56:16.376Z,7.73
2019-04-29T16:58:45.602Z,8.20
2019-04-29T17:01:15.952Z,8.20
2019-04-29T17:03:45.959Z,9.50
2019-04-29T17:06:15.962Z,8.17
2019-04-29T17:09:05.022Z,7.90
2019-04-29T17:11:39.507Z,7.90
2019-04-29T17:14:12.634Z,7.87
2019-04-29T17:16:41.431Z,7.90
2019-04-29T17:19:12.719Z,8.20
2019-04-29T17:21:42.791Z,8.03
2019-04-29T17:24:12.927Z,8.47
2019-04-29T17:26:44.643Z,7.87
2019-04-29T17:29:38.503Z,7.77
2019-04-29T17:32:00.418Z,7.93
2019-04-29T17:34:56.616Z,8.43
2019-04-29T17:37:04.281Z,8.60
2019-04-29T17:39:34.273Z,9.20
2019-04-29T17:42:04.500Z,8.63
2019-04-29T17:44:46.768Z,8.57
2019-04-29T17:47:34.505Z,8.20
2019-04-29T17:50:30.038Z,8.87
2019-04-29T17:52:51.990Z,8.57
2019-04-29T17:55:41.052Z,7.70
2019-04-29T17:58:13.145Z,8.00
2019-04-29T18:00:55.489Z,9.53
2019-04-29T18:03:25.147Z,10.90
2019-04-29T18:05:57.673Z,12.53
2019-04-29T18:08:32.604Z,11.70
2019-04-29T18:11:07.973Z,10.17
2019-04-29T18:13:36.224Z,9.50
2019-04-29T18:16:17.484Z,9.13
2019-04-29T18:18:48.618Z,8.23
2019-04-29T18:21:16.455Z,8.17
2019-04-29T18:23:51.504Z,8.90
2019-04-29T18:26:29.211Z,8.40
2019-04-29T18:29:03.418Z,8.07
2019-04-29T18:31:33.597Z,8.30
2019-04-29T18:34:05.482Z,8.33
2019-04-29T18:36:35.352Z,7.77
2019-04-29T18:39:08.838Z,8.17
2019-04-29T18:44:55.125Z,9.37
2019-04-29T18:47:22.559Z,10.10
2019-04-29T18:49:49.894Z,8.40
2019-04-29T18:52:25.809Z,8.60
2019-04-29T18:54:51.690Z,8.27
2019-04-29T18:57:29.476Z,8.47
2019-04-29T18:59:55.065Z,8.70
2019-04-29T19:02:27.417Z,8.40
2019-04-29T19:04:58.626Z,8.47
2019-04-29T19:07:31.773Z,8.63
2019-04-29T19:10:00.409Z,10.27
2019-04-29T19:12:31.705Z,9.63
2019-04-29T19:15:05.071Z,9.80
2019-04-29T19:17:36.741Z,11.00
2019-04-29T19:20:12.858Z,11.37
2019-04-29T19:22:44.171Z,10.80
2019-04-29T19:25:12.785Z,10.37
2019-04-29T19:27:42.889Z,10.70
2019-04-29T19:30:16.043Z,10.83
2019-04-29T19:32:46.841Z,11.50
2019-04-29T19:35:18.260Z,10.90
2019-04-29T19:37:48.289Z,10.97
2019-04-29T19:40:18.497Z,11.00
2019-04-29T19:42:48.565Z,10.80
2019-04-29T19:45:19.711Z,11.50
2019-04-29T19:47:53.132Z,13.53
2019-04-29T19:50:21.495Z,12.97
2019-04-29T19:52:51.641Z,12.50
2019-04-29T19:55:21.775Z,11.57
2019-04-29T19:57:52.623Z,11.90
2019-04-29T20:00:29.050Z,12.63
2019-04-29T20:02:57.266Z,14.10
2019-04-29T20:05:34.093Z,13.57
2019-04-29T20:08:01.206Z,12.63
2019-04-29T20:10:36.469Z,11.50
2019-04-29T20:13:03.793Z,12.30
2019-04-29T20:15:37.798Z,12.63
2019-04-29T20:18:13.304Z,13.10
2019-04-29T20:21:08.122Z,13.83
2019-04-29T20:23:29.678Z,14.40
2019-04-29T20:26:12.801Z,11.20
2019-04-29T20:28:31.850Z,10.93
2019-04-29T20:31:16.475Z,11.33
2019-04-29T20:33:35.948Z,11.27
2019-04-29T20:36:06.405Z,11.13
2019-04-29T20:38:38.867Z,11.07
2019-04-29T20:41:13.018Z,11.07
2019-04-29T20:43:41.728Z,11.07
2019-04-29T20:46:11.842Z,11.23
2019-04-29T20:48:42.233Z,10.93
2019-04-29T20:51:14.156Z,11.50
2019-04-29T20:53:46.198Z,11.00
2019-04-29T20:56:23.660Z,11.17
2019-04-29T20:58:48.371Z,11.00
2019-04-29T21:01:20.318Z,11.27
2019-04-29T21:03:53.800Z,11.30
2019-04-29T21:06:22.501Z,11.67
2019-04-29T21:08:52.526Z,11.40
2019-04-29T21:11:32.774Z,11.37
2019-04-29T21:14:05.487Z,11.50
2019-04-29T21:16:37.443Z,11.53
2019-04-29T21:19:08.978Z,11.40
2019-04-29T21:21:41.919Z,11.20
2019-04-29T21:24:16.789Z,11.90
2019-04-29T21:26:45.968Z,11.57
2019-04-29T21:29:19.441Z,12.00
2019-04-29T21:31:50.743Z,12.07
2019-04-29T21:34:21.460Z,11.60
2019-04-29T21:36:53.211Z,11.63
2019-04-29T21:39:37.878Z,11.57
2019-04-29T21:42:15.659Z,11.40
2019-04-29T21:44:47.024Z,12.13
2019-04-29T21:47:17.502Z,11.27
2019-04-29T21:49:49.914Z,11.87
2019-04-29T21:52:19.592Z,11.43
2019-04-29T21:54:51.015Z,11.30
2019-04-29T21:57:23.697Z,11.83
2019-04-29T21:59:52.757Z,12.40
2019-04-29T22:02:22.997Z,12.43
2019-04-29T22:04:55.184Z,12.20
2019-04-29T22:07:25.859Z,12.47
2019-04-29T22:09:57.039Z,12.47
2019-04-29T22:12:27.055Z,13.00
2019-04-29T22:14:59.405Z,12.90
2019-04-29T22:17:32.859Z,12.10
2019-04-29T22:20:04.167Z,12.27
2019-04-29T22:22:35.065Z,12.67
2019-04-29T22:25:09.840Z,12.10
2019-04-29T22:27:39.492Z,12.50
2019-04-29T22:30:16.870Z,12.77
2019-04-29T22:32:46.833Z,12.73
2019-04-29T22:35:16.601Z,12.60
2019-04-29T22:37:46.746Z,12.30
2019-04-29T22:40:17.395Z,12.40
2019-04-29T22:42:50.229Z,12.90
2019-04-29T22:45:22.215Z,13.13
2019-04-29T22:47:54.329Z,12.53
2019-04-29T22:50:24.013Z,12.40
2019-04-29T22:52:56.696Z,12.27
2019-04-29T22:55:30.797Z,12.00
2019-04-29T22:58:00.843Z,12.20
2019-04-29T23:00:32.825Z,12.53
2019-04-29T23:03:03.563Z,12.23
2019-04-29T23:05:35.921Z,12.30
2019-04-29T23:08:05.684Z,12.63
2019-04-29T23:10:37.308Z,12.50
2019-04-29T23:13:07.381Z,12.37
2019-04-29T23:15:37.444Z,12.47
2019-04-29T23:18:07.805Z,12.60
2019-04-29T23:20:59.561Z,12.67
2019-04-29T23:23:38.360Z,12.20
2019-04-29T23:26:08.470Z,11.33
2019-04-29T23:28:38.480Z,12.20
2019-04-29T23:31:08.605Z,11.57
2019-04-29T23:33:38.643Z,11.30
2019-04-29T23:36:09.682Z,11.23
2019-04-29T23:38:42.712Z,11.03
2019-04-29T23:41:12.295Z,10.60
2019-04-29T23:43:42.383Z,10.60
2019-04-29T23:46:12.471Z,10.60
2019-04-29T23:48:42.615Z,10.20
2019-04-29T23:51:12.629Z,10.03
2019-04-29T23:53:42.724Z,9.93
2019-04-29T23:56:15.357Z,10.40
2019-04-29T23:58:50.064Z,10.03
